^^
Meteo Knjazevac Station Historical Data
Daily Summary for March 17, 2021 Units:  Metric    English   Both
Daily Weekly Monthly Yearly Custom
  High: Low: Average:
Temperature: 37.4 °C 18 °C 25.7 °C
Dew Point: 20.8 °C 11.1 °C 15.7 °C
Humidity: 81% 30% 57%
Wind Speed: 20.9km/h 0km/h 4.8km/h
Wind Gust: 35.4km/h - -
Wind- - WSW
Pressure: 1017.2 hPa 1011.1 hPa -
Precipitation: 0.51 mm    
Historical Graphs
 
 
Tabular Data for March 17, 2021
Time Temperature Dew Point Pressure Wind Wind Speed Wind Gust Humidity Rainfall Rate (Hourly) solar Conditions
00:00 20.2 °C 13.4 °C 1014.1 hPa West 3.2 km/h 11.3 km/h 65% 0 mm 0 W/m2
00:10 20 °C 13.2 °C 1014.1 hPa WSW 3.2 km/h 8 km/h 65% 0 mm 0 W/m2
00:20 19.6 °C 13.3 °C 1014.1 hPa West 3.2 km/h 9.7 km/h 67% 0 mm 0 W/m2
00:30 19.6 °C 13.3 °C 1014.1 hPa West 3.2 km/h 8 km/h 67% 0 mm 0 W/m2
00:40 19.4 °C 13.3 °C 1013.8 hPa West 1.6 km/h 4.8 km/h 68% 0 mm 0 W/m2
00:50 19.1 °C 13.3 °C 1013.8 hPa WSW 1.6 km/h 8 km/h 69% 0 mm 0 W/m2
01:00 18.9 °C 13.1 °C 1013.8 hPa WSW 1.6 km/h 6.4 km/h 69% 0 mm 0 W/m2
01:10 18.8 °C 13 °C 1013.8 hPa Calm   6.4 km/h 69% 0 mm 0 W/m2
01:20 18.7 °C 13.1 °C 1013.8 hPa WSW 1.6 km/h 4.8 km/h 70% 0 mm 0 W/m2
01:30 18.6 °C 12.8 °C 1013.8 hPa West 4.8 km/h 9.7 km/h 69% 0 mm 0 W/m2
01:40 18.7 °C 12.9 °C 1013.8 hPa West 4.8 km/h 12.9 km/h 69% 0 mm 0 W/m2
01:50 18.7 °C 12.9 °C 1013.8 hPa West 4.8 km/h 8 km/h 69% 0 mm 0 W/m2
02:00 18.7 °C 12.9 °C 1013.8 hPa WSW 1.6 km/h 4.8 km/h 69% 0 mm 0 W/m2
02:10 18.6 °C 12.8 °C 1013.4 hPa NW 1.6 km/h 8 km/h 69% 0 mm 0 W/m2
02:20 18.6 °C 12.8 °C 1013.4 hPa West 1.6 km/h 3.2 km/h 69% 0 mm 0 W/m2
02:30 18.4 °C 12.6 °C 1013.4 hPa West 4.8 km/h 8 km/h 69% 0 mm 0 W/m2
02:40 18.3 °C 12.5 °C 1013.8 hPa WNW 1.6 km/h 8 km/h 69% 0 mm 0 W/m2
02:50 18.3 °C 12.3 °C 1013.8 hPa WNW 1.6 km/h 3.2 km/h 68% 0 mm 0 W/m2
03:00 18.2 °C 12.4 °C 1013.8 hPa NE 3.2 km/h 9.7 km/h 69% 0 mm 0 W/m2
03:10 18.2 °C 12.4 °C 1013.8 hPa NNE 1.6 km/h 8 km/h 69% 0 mm 0 W/m2
03:20 18.2 °C 12.4 °C 1013.8 hPa WNW 1.6 km/h 6.4 km/h 69% 0 mm 0 W/m2
03:30 18.2 °C 12.2 °C 1013.8 hPa NW 1.6 km/h 4.8 km/h 68% 0 mm 0 W/m2
03:40 18.1 °C 11.9 °C 1013.8 hPa Calm   4.8 km/h 67% 0 mm 0 W/m2
03:50 18 °C 11.8 °C 1013.8 hPa WNW 1.6 km/h 3.2 km/h 67% 0 mm 0 W/m2
04:00 18 °C 11.3 °C 1013.8 hPa Calm   4.8 km/h 65% 0 mm 0 W/m2
04:10 18 °C 11.8 °C 1013.4 hPa NW 1.6 km/h 6.4 km/h 67% 0 mm 0 W/m2
04:20 18 °C 11.8 °C 1013.4 hPa NNW 1.6 km/h 6.4 km/h 67% 0 mm 0 W/m2
04:30 18.1 °C 11.4 °C 1013.4 hPa NW 3.2 km/h 8 km/h 65% 0 mm 0 W/m2
04:40 18.5 °C 11.6 °C 1013.4 hPa NNW 1.6 km/h 8 km/h 64% 0 mm 0 W/m2
04:50 18.6 °C 11.4 °C 1013.4 hPa NW 1.6 km/h 8 km/h 63% 0 mm 0 W/m2
05:00 18.9 °C 11.4 °C 1013.4 hPa WNW 1.6 km/h 12.9 km/h 62% 0 mm 0 W/m2
05:10 19 °C 11.1 °C 1013.4 hPa WNW 1.6 km/h 8 km/h 60% 0 mm 0 W/m2
05:20 19.1 °C 11.2 °C 1013.4 hPa WNW 3.2 km/h 4.8 km/h 60% 0 mm 0 W/m2
05:30 18.9 °C 11.7 °C 1013.8 hPa WSW 3.2 km/h 4.8 km/h 63% 0 mm 0 W/m2
05:40 18.6 °C 11.4 °C 1013.8 hPa NW 3.2 km/h 8 km/h 63% 0 mm 3 W/m2
05:50 18.7 °C 11.3 °C 1013.8 hPa NW 3.2 km/h 8 km/h 62% 0 mm 6 W/m2
06:00 18.7 °C 11.7 °C 1013.8 hPa NW 1.6 km/h 4.8 km/h 64% 0 mm 11 W/m2
06:10 18.5 °C 11.6 °C 1013.8 hPa Calm   3.2 km/h 64% 0 mm 20 W/m2
06:20 18.3 °C 11.6 °C 1013.8 hPa WSW 3.2 km/h 4.8 km/h 65% 0 mm 29 W/m2
06:30 18 °C 11.8 °C 1013.8 hPa West 3.2 km/h 8 km/h 67% 0 mm 42 W/m2
06:40 18.1 °C 11.4 °C 1013.8 hPa West 3.2 km/h 8 km/h 65% 0 mm 64 W/m2
06:50 18.1 °C 11.9 °C 1013.8 hPa WNW 1.6 km/h 4.8 km/h 67% 0 mm 87 W/m2
07:00 18.2 °C 11.9 °C 1013.8 hPa West 1.6 km/h 4.8 km/h 67% 0 mm 107 W/m2
07:10 18.1 °C 12.1 °C 1013.8 hPa Calm   4.8 km/h 68% 0 mm 129 W/m2
07:20 18.3 °C 12.3 °C 1013.8 hPa West 3.2 km/h 6.4 km/h 68% 0 mm 160 W/m2
07:30 18.6 °C 12.6 °C 1013.8 hPa WNW 1.6 km/h 8 km/h 68% 0 mm 185 W/m2
07:40 19 °C 12.9 °C 1014.1 hPa West 1.6 km/h 4.8 km/h 68% 0 mm 210 W/m2
07:50 19.3 °C 13.4 °C 1014.1 hPa NW 1.6 km/h 3.2 km/h 69% 0 mm 240 W/m2
08:00 19.7 °C 13.8 °C 1014.1 hPa West 1.6 km/h 4.8 km/h 69% 0 mm 272 W/m2
08:10 20.2 °C 14.1 °C 1014.1 hPa WNW 1.6 km/h 4.8 km/h 68% 0 mm 304 W/m2
08:20 20.7 °C 14.3 °C 1013.8 hPa SW 1.6 km/h 3.2 km/h 67% 0 mm 327 W/m2
08:30 21.2 °C 14.6 °C 1013.8 hPa Calm   3.2 km/h 66% 0 mm 363 W/m2
08:40 21.8 °C 14.9 °C 1013.8 hPa WNW 1.6 km/h 3.2 km/h 65% 0 mm 399 W/m2
08:50 22.4 °C 14.8 °C 1013.8 hPa WNW 1.6 km/h 4.8 km/h 62% 0 mm 432 W/m2
09:00 23.6 °C 15.4 °C 1013.8 hPa West 3.2 km/h 8 km/h 60% 0 mm 465 W/m2
09:10 24.8 °C 16.3 °C 1013.8 hPa West 1.6 km/h 4.8 km/h 59% 0 mm 478 W/m2
09:20 25.9 °C 16.2 °C 1013.8 hPa WNW 1.6 km/h 4.8 km/h 55% 0 mm 506 W/m2
09:30 26.7 °C 17.2 °C 1013.8 hPa Calm   3.2 km/h 56% 0 mm 536 W/m2
09:40 27.6 °C 17.4 °C 1013.8 hPa WNW 1.6 km/h 4.8 km/h 54% 0 mm 584 W/m2
09:50 28.3 °C 17.5 °C 1013.4 hPa East 3.2 km/h 11.3 km/h 52% 0 mm 600 W/m2
10:00 29.1 °C 17.3 °C 1013.4 hPa SE 4.8 km/h 9.7 km/h 49% 0 mm 639 W/m2
10:10 29.8 °C 17.6 °C 1013.4 hPa SE 4.8 km/h 9.7 km/h 48% 0 mm 651 W/m2
10:20 30.4 °C 17.8 °C 1013.4 hPa ESE 4.8 km/h 11.3 km/h 47% 0 mm 681 W/m2
10:30 31 °C 17.7 °C 1013.4 hPa SSE 1.6 km/h 9.7 km/h 45% 0 mm 715 W/m2
10:40 31.4 °C 18.1 °C 1013.4 hPa SE 4.8 km/h 11.3 km/h 45% 0 mm 725 W/m2
10:50 32.1 °C 18.3 °C 1013.4 hPa ESE 3.2 km/h 11.3 km/h 44% 0 mm 315 W/m2
11:00 32.6 °C 18 °C 1013.4 hPa SE 4.8 km/h 11.3 km/h 42% 0 mm 379 W/m2
11:10 33 °C 18 °C 1013.1 hPa SSW 4.8 km/h 11.3 km/h 41% 0 mm 291 W/m2
11:20 33.3 °C 17.9 °C 1013.1 hPa SSW 1.6 km/h 11.3 km/h 40% 0 mm 295 W/m2
11:30 33.6 °C 18.1 °C 1013.1 hPa WSW 1.6 km/h 9.7 km/h 40% 0 mm 535 W/m2
11:40 33.8 °C 17.9 °C 1013.1 hPa North 1.6 km/h 8 km/h 39% 0 mm 369 W/m2
11:50 34.2 °C 18.3 °C 1013.1 hPa ESE 8 km/h 14.5 km/h 39% 0 mm 841 W/m2
12:00 34.5 °C 18.1 °C 1013.1 hPa WNW 9.7 km/h 14.5 km/h 38% 0 mm 832 W/m2
12:10 34.6 °C 17.7 °C 1013.1 hPa SW 8 km/h 12.9 km/h 37% 0 mm 831 W/m2
12:20 34.7 °C 17 °C 1012.8 hPa SW 9.7 km/h 17.7 km/h 35% 0 mm 841 W/m2
12:30 34.8 °C 17.1 °C 1012.8 hPa SW 9.7 km/h 16.1 km/h 35% 0 mm 830 W/m2
12:40 35 °C 16.8 °C 1012.8 hPa SW 4.8 km/h 12.9 km/h 34% 0 mm 850 W/m2
12:50 35.4 °C 17.6 °C 1012.8 hPa South 3.2 km/h 9.7 km/h 35% 0 mm 846 W/m2
13:00 35.7 °C 17.4 °C 1012.8 hPa SW 3.2 km/h 12.9 km/h 34% 0 mm 830 W/m2
13:10 35.7 °C 17.4 °C 1012.4 hPa WSW 3.2 km/h 14.5 km/h 34% 0 mm 823 W/m2
13:20 35.8 °C 17.1 °C 1012.4 hPa SSW 8 km/h 11.3 km/h 33% 0 mm 806 W/m2
13:30 36.1 °C 17.2 °C 1012.4 hPa SW 3.2 km/h 11.3 km/h 33% 0 mm 818 W/m2
13:40 36.3 °C 17.4 °C 1012.1 hPa SW 1.6 km/h 9.7 km/h 33% 0 mm 829 W/m2
13:50 36.6 °C 17.7 °C 1012.1 hPa SW 9.7 km/h 16.1 km/h 33% 0 mm 813 W/m2
14:00 36.6 °C 17.7 °C 1012.1 hPa SW 1.6 km/h 14.5 km/h 33% 0 mm 808 W/m2
14:10 36.9 °C 16.4 °C 1011.7 hPa SW 3.2 km/h 11.3 km/h 30% 0 mm 816 W/m2
14:20 37 °C 16.6 °C 1011.7 hPa SW 4.8 km/h 11.3 km/h 30% 0 mm 697 W/m2
14:30 37 °C 16.6 °C 1011.7 hPa ESE 4.8 km/h 12.9 km/h 30% 0 mm 783 W/m2
14:40 36.9 °C 17 °C 1011.7 hPa SSW 3.2 km/h 9.7 km/h 31% 0 mm 765 W/m2
14:50 36.9 °C 17 °C 1011.7 hPa SSW 8 km/h 12.9 km/h 31% 0 mm 642 W/m2
15:00 36.9 °C 17.5 °C 1011.4 hPa SSE 4.8 km/h 14.5 km/h 32% 0 mm 724 W/m2
15:10 37.2 °C 17.7 °C 1011.1 hPa SSW 8 km/h 14.5 km/h 32% 0 mm 689 W/m2
15:20 37.3 °C 16.8 °C 1011.1 hPa ENE 4.8 km/h 16.1 km/h 30% 0 mm 673 W/m2
15:30 37.4 °C 16.9 °C 1011.1 hPa SW 11.3 km/h 20.9 km/h 30% 0 mm 568 W/m2
15:40 37.3 °C 16.8 °C 1011.1 hPa WSW 4.8 km/h 14.5 km/h 30% 0 mm 400 W/m2
15:50 37.3 °C 17.8 °C 1011.1 hPa WSW 3.2 km/h 8 km/h 32% 0 mm 461 W/m2
16:00 36.8 °C 17.4 °C 1011.1 hPa WSW 3.2 km/h 8 km/h 32% 0 mm 202 W/m2
16:10 36.4 °C 17 °C 1011.1 hPa WSW 3.2 km/h 8 km/h 32% 0 mm 205 W/m2
16:20 36 °C 17.2 °C 1011.1 hPa WSW 4.8 km/h 12.9 km/h 33% 0 mm 212 W/m2
16:30 35.5 °C 20.2 °C 1011.4 hPa WNW 16.1 km/h 27.4 km/h 41% 0 mm 452 W/m2
16:40 34.9 °C 20.5 °C 1011.7 hPa West 9.7 km/h 27.4 km/h 43% 0 mm 315 W/m2
16:50 34.5 °C 20.8 °C 1011.7 hPa West 12.9 km/h 22.5 km/h 45% 0 mm 408 W/m2
17:00 33.8 °C 20.2 °C 1012.1 hPa West 14.5 km/h 25.7 km/h 45% 0 mm 175 W/m2
17:10 32.8 °C 19.9 °C 1012.4 hPa West 12.9 km/h 33.8 km/h 47% 0 mm 177 W/m2
17:20 31.9 °C 19.5 °C 1012.8 hPa West 20.9 km/h 35.4 km/h 48% 0 mm 120 W/m2
17:30 31.1 °C 19.1 °C 1012.8 hPa West 19.3 km/h 32.2 km/h 49% 0 mm 80 W/m2
17:40 30.1 °C 19.1 °C 1013.1 hPa West 19.3 km/h 35.4 km/h 52% 0 mm 73 W/m2
17:50 29.2 °C 18.6 °C 1013.1 hPa West 16.1 km/h 35.4 km/h 53% 0 mm 74 W/m2
18:00 28.7 °C 18.5 °C 1013.4 hPa West 12.9 km/h 32.2 km/h 54% 0 mm 69 W/m2
18:10 28.4 °C 18.3 °C 1013.4 hPa WNW 11.3 km/h 20.9 km/h 54% 0 mm 67 W/m2
18:20 28.3 °C 18.1 °C 1013.4 hPa WNW 11.3 km/h 19.3 km/h 54% 0 mm 66 W/m2
18:30 28.1 °C 18.2 °C 1013.4 hPa WNW 3.2 km/h 16.1 km/h 55% 0 mm 56 W/m2
18:40 28 °C 18.1 °C 1013.1 hPa West 1.6 km/h 8 km/h 55% 0 mm 43 W/m2
18:50 27.8 °C 17.9 °C 1013.4 hPa SW 1.6 km/h 3.2 km/h 55% 0 mm 24 W/m2
19:00 27.7 °C 18.1 °C 1013.4 hPa SW 3.2 km/h 8 km/h 56% 0 mm 13 W/m2
19:10 27.6 °C 17.7 °C 1013.8 hPa North 1.6 km/h 9.7 km/h 55% 0 mm 8 W/m2
19:20 27.4 °C 17.6 °C 1014.1 hPa SSW 1.6 km/h 6.4 km/h 55% 0 mm 4 W/m2
19:30 27.2 °C 17.4 °C 1014.1 hPa WSW 11.3 km/h 19.3 km/h 55% 0 mm 2 W/m2
19:40 26.7 °C 17.8 °C 1014.4 hPa SW 12.9 km/h 22.5 km/h 58% 0 mm 0 W/m2
19:50 26.2 °C 17.5 °C 1014.4 hPa WSW 12.9 km/h 24.1 km/h 59% 0 mm 0 W/m2
20:00 25.8 °C 17.4 °C 1014.4 hPa West 9.7 km/h 25.7 km/h 60% 0 mm 0 W/m2
20:10 25.6 °C 17.8 °C 1014.4 hPa WNW 4.8 km/h 14.5 km/h 62% 0 mm 0 W/m2
20:20 24.9 °C 18.8 °C 1014.4 hPa NW 11.3 km/h 20.9 km/h 69% 0.51 mm 0 W/m2
20:30 24.1 °C 18.9 °C 1014.4 hPa WSW 4.8 km/h 20.9 km/h 73% 0 mm 0 W/m2
20:40 23.6 °C 18.9 °C 1014.8 hPa WSW 9.7 km/h 14.5 km/h 75% 0.25 mm 0 W/m2
20:50 22.8 °C 18.4 °C 1014.8 hPa WSW 12.9 km/h 20.9 km/h 76% 0 mm 0 W/m2
21:00 22.5 °C 17.8 °C 1015.1 hPa WSW 9.7 km/h 20.9 km/h 75% 0 mm 0 W/m2
21:10 22.2 °C 17.5 °C 1015.5 hPa SW 9.7 km/h 20.9 km/h 75% 0 mm 0 W/m2
21:20 21.7 °C 17.1 °C 1015.8 hPa WSW 11.3 km/h 20.9 km/h 75% 0 mm 0 W/m2
21:30 21.4 °C 17.2 °C 1015.8 hPa WSW 9.7 km/h 19.3 km/h 77% 0 mm 0 W/m2
21:40 21.4 °C 17.2 °C 1015.8 hPa WSW 9.7 km/h 16.1 km/h 77% 0 mm 0 W/m2
21:50 21.2 °C 16.4 °C 1016.1 hPa SW 9.7 km/h 16.1 km/h 74% 0 mm 0 W/m2
22:00 21.2 °C 16.6 °C 1016.1 hPa SW 4.8 km/h 11.3 km/h 75% 0 mm 0 W/m2
22:20 20.8 °C 17.4 °C 1016.5 hPa South 4.8 km/h 11.3 km/h 81% 0 mm 0 W/m2
22:50 20 °C 16.4 °C 1016.8 hPa SSW 3.2 km/h 9.7 km/h 80% 0 mm 0 W/m2
23:00 19.8 °C 16.2 °C 1016.8 hPa South 3.2 km/h 9.7 km/h 80% 0 mm 0 W/m2
23:10 19.6 °C 16.1 °C 1016.8 hPa SSW 3.2 km/h 8 km/h 80% 0 mm 0 W/m2
23:20 19.5 °C 16.2 °C 1016.8 hPa SSW 3.2 km/h 6.4 km/h 81% 0 mm 0 W/m2
23:30 19.3 °C 15.8 °C 1016.8 hPa SW 3.2 km/h 6.4 km/h 80% 0 mm 0 W/m2
23:40 19.2 °C 15.9 °C 1016.8 hPa SW 3.2 km/h 8 km/h 81% 0 mm 0 W/m2
23:50 19.1 °C 15.8 °C 1017.2 hPa South 1.6 km/h 8 km/h 81% 0 mm 0 W/m2
Knjazevac, Serbia
Compliments of Weather Underground - 2 mb